createdAt,value
2018-08-04T00:00:08.277Z,85.60
2018-08-04T00:02:36.568Z,86.70
2018-08-04T00:05:05.117Z,87.70
2018-08-04T00:07:33.176Z,88.40
2018-08-04T00:10:01.245Z,89.70
2018-08-04T00:12:29.344Z,90.00
2018-08-04T00:14:57.404Z,91.20
2018-08-04T00:17:25.472Z,91.50
2018-08-04T00:19:53.532Z,91.90
2018-08-04T00:22:21.604Z,91.80
2018-08-04T00:24:49.780Z,91.60
2018-08-04T00:27:17.832Z,92.10
2018-08-04T00:29:45.897Z,92.40
2018-08-04T00:32:13.963Z,92.60
2018-08-04T00:34:42.020Z,92.60
2018-08-04T00:39:44.586Z,92.60
2018-08-04T00:42:12.641Z,92.70
2018-08-04T00:44:40.744Z,93.20
2018-08-04T00:47:08.807Z,93.20
2018-08-04T00:49:36.880Z,93.10
2018-08-04T00:52:04.949Z,93.30
2018-08-04T00:54:33.022Z,93.00
2018-08-04T00:57:01.084Z,93.20
2018-08-04T00:59:29.144Z,93.50
2018-08-04T01:01:57.203Z,94.40
2018-08-04T01:04:25.252Z,94.60
2018-08-04T01:06:53.370Z,94.80
2018-08-04T01:09:21.408Z,94.50
2018-08-04T01:11:49.439Z,94.50
2018-08-04T01:14:17.489Z,94.40
2018-08-04T01:16:45.525Z,94.30
2018-08-04T01:19:13.575Z,94.40
2018-08-04T01:21:41.620Z,94.30
2018-08-04T01:24:09.664Z,94.70
2018-08-04T01:29:05.764Z,94.50
2018-08-04T01:31:33.785Z,94.30
2018-08-04T01:34:01.866Z,94.00
2018-08-04T01:36:29.877Z,93.80
2018-08-04T01:38:57.951Z,93.70
2018-08-04T01:41:25.955Z,93.60
2018-08-04T01:43:53.992Z,93.40
2018-08-04T01:46:22.037Z,93.50
2018-08-04T01:48:50.071Z,93.80
2018-08-04T01:51:18.117Z,94.00
2018-08-04T01:53:46.220Z,94.10
2018-08-04T01:56:14.192Z,94.10
2018-08-04T01:58:42.224Z,94.20
2018-08-04T02:01:10.263Z,94.20
2018-08-04T02:03:38.305Z,94.10
2018-08-04T02:06:06.440Z,94.40
2018-08-04T02:08:34.492Z,94.50
2018-08-04T02:11:02.560Z,95.00
2018-08-04T02:13:30.663Z,95.30
2018-08-04T02:15:58.724Z,95.50
2018-08-04T02:18:26.776Z,95.70
2018-08-04T02:21:01.229Z,96.00
2018-08-04T02:23:29.292Z,96.10
2018-08-04T02:25:57.359Z,96.20
2018-08-04T02:28:25.405Z,96.00
2018-08-04T02:30:53.472Z,95.90
2018-08-04T02:33:21.524Z,95.50
2018-08-04T02:35:49.585Z,95.50
2018-08-04T02:38:17.643Z,95.70
2018-08-04T02:40:45.750Z,96.20
2018-08-04T02:43:13.808Z,96.60
2018-08-04T02:45:41.912Z,97.00
2018-08-04T02:48:09.968Z,96.90
2018-08-04T02:50:38.033Z,96.90
2018-08-04T02:53:06.097Z,96.80
2018-08-04T02:55:34.152Z,96.40
2018-08-04T02:58:02.216Z,96.30
2018-08-04T03:00:30.277Z,96.30
2018-08-04T03:02:58.337Z,96.00
2018-08-04T03:05:26.394Z,96.20
2018-08-04T03:07:54.442Z,95.80
2018-08-04T03:10:22.476Z,95.80
2018-08-04T03:12:50.606Z,95.30
2018-08-04T03:15:18.661Z,95.40
2018-08-04T03:17:46.809Z,95.60
2018-08-04T03:20:14.856Z,96.30
2018-08-04T03:22:42.896Z,96.40
2018-08-04T03:25:10.941Z,95.70
2018-08-04T03:27:38.979Z,95.80
2018-08-04T03:30:07.025Z,96.10
2018-08-04T03:32:35.061Z,96.70
2018-08-04T03:35:03.117Z,97.10
2018-08-04T03:37:31.165Z,97.80
2018-08-04T03:39:59.387Z,97.70
2018-08-04T03:42:27.433Z,97.30
2018-08-04T03:44:55.467Z,96.90
2018-08-04T03:47:23.507Z,96.90
2018-08-04T03:52:19.396Z,98.10
2018-08-04T03:54:47.432Z,98.30
2018-08-04T03:57:15.484Z,98.30
2018-08-04T03:59:43.526Z,97.40
2018-08-04T04:02:11.748Z,96.60
2018-08-04T04:04:39.809Z,96.60
2018-08-04T04:07:08.015Z,96.80
2018-08-04T04:09:36.077Z,97.50
2018-08-04T04:12:04.135Z,98.00
2018-08-04T04:17:00.045Z,98.10
2018-08-04T04:19:28.100Z,97.80
2018-08-04T04:21:56.164Z,98.00
2018-08-04T04:24:24.217Z,98.10
2018-08-04T04:26:52.287Z,97.60
2018-08-04T04:29:20.429Z,97.80
2018-08-04T04:31:48.493Z,98.20
2018-08-04T04:34:16.548Z,98.60
2018-08-04T04:36:44.676Z,99.50
2018-08-04T04:39:12.677Z,99.50
2018-08-04T04:41:41.204Z,99.60
2018-08-04T04:44:09.484Z,98.90
2018-08-04T04:46:37.768Z,98.00
2018-08-04T04:49:07.297Z,97.80
2018-08-04T04:51:35.356Z,97.70
2018-08-04T04:54:03.492Z,97.20
2018-08-04T04:56:31.562Z,96.70
2018-08-04T04:58:59.621Z,96.70
2018-08-04T05:01:27.828Z,97.00
2018-08-04T05:03:56.220Z,97.40
2018-08-04T05:06:24.289Z,97.90
2018-08-04T05:08:52.337Z,97.90
2018-08-04T05:11:20.377Z,98.00
2018-08-04T05:13:48.417Z,98.00
2018-08-04T05:16:16.456Z,98.10
2018-08-04T05:18:44.522Z,97.90
2018-08-04T05:21:12.560Z,97.30
2018-08-04T05:23:40.628Z,97.00
2018-08-04T05:26:08.681Z,96.80
2018-08-04T05:28:37.270Z,97.30
2018-08-04T05:31:06.928Z,98.10
2018-08-04T05:33:35.553Z,98.50
2018-08-04T05:36:03.644Z,98.60
2018-08-04T05:38:31.692Z,98.10
2018-08-04T05:40:59.751Z,97.90
2018-08-04T05:43:27.847Z,98.20
2018-08-04T05:45:55.840Z,97.70
2018-08-04T05:48:23.876Z,96.30
2018-08-04T05:50:51.920Z,95.20
2018-08-04T05:53:19.965Z,95.10
2018-08-04T05:55:48.000Z,94.10
2018-08-04T05:58:16.056Z,93.70
2018-08-04T06:00:44.125Z,93.60
2018-08-04T06:03:12.220Z,93.20
2018-08-04T06:05:40.319Z,93.10
2018-08-04T06:08:08.364Z,92.60
2018-08-04T06:10:36.488Z,92.80
2018-08-04T06:13:04.567Z,92.40
2018-08-04T06:15:32.632Z,91.80
2018-08-04T06:18:00.704Z,92.20
2018-08-04T06:20:28.768Z,92.10
2018-08-04T06:22:56.827Z,92.20
2018-08-04T06:25:24.883Z,92.40
2018-08-04T06:27:52.976Z,92.30
2018-08-04T06:30:21.041Z,91.80
2018-08-04T06:32:49.108Z,91.30
2018-08-04T06:35:17.172Z,90.90
2018-08-04T06:37:45.243Z,89.00
2018-08-04T06:40:13.308Z,86.80
2018-08-04T06:42:41.384Z,83.70
2018-08-04T06:45:09.452Z,79.70
2018-08-04T06:47:37.521Z,74.40
2018-08-04T06:50:06.092Z,70.80
2018-08-04T06:52:34.304Z,67.80
2018-08-04T06:55:02.442Z,63.80
2018-08-04T06:57:30.509Z,59.50
2018-08-04T06:59:58.575Z,57.60
2018-08-04T07:02:26.660Z,55.80
2018-08-04T07:04:54.728Z,55.20
2018-08-04T07:07:22.775Z,54.90
2018-08-04T07:09:57.483Z,53.30
2018-08-04T07:12:25.536Z,53.20
2018-08-04T07:14:53.563Z,52.10
2018-08-04T07:17:21.612Z,51.30
2018-08-04T07:19:49.652Z,50.30
2018-08-04T07:22:17.704Z,49.50
2018-08-04T07:24:45.747Z,49.00
2018-08-04T07:27:13.797Z,49.60
2018-08-04T07:29:41.873Z,48.70
2018-08-04T07:32:09.912Z,48.60
2018-08-04T07:34:37.960Z,48.70
2018-08-04T07:37:06.484Z,47.00
2018-08-04T07:39:34.521Z,46.80
2018-08-04T07:42:02.568Z,46.80
2018-08-04T07:44:30.604Z,46.20
2018-08-04T07:46:58.664Z,45.50
2018-08-04T07:49:26.740Z,45.50
2018-08-04T07:51:54.772Z,45.00
2018-08-04T07:54:22.808Z,44.80
2018-08-04T07:56:50.851Z,44.30
2018-08-04T07:59:18.915Z,44.20
2018-08-04T08:01:46.937Z,44.10
2018-08-04T08:04:14.982Z,43.00
2018-08-04T08:06:43.197Z,43.70
2018-08-04T08:09:11.264Z,43.20
2018-08-04T08:11:39.325Z,43.60
2018-08-04T08:14:07.389Z,43.10
2018-08-04T08:16:35.443Z,42.80
2018-08-04T08:19:03.557Z,42.40
2018-08-04T08:21:31.608Z,42.30
2018-08-04T08:23:59.669Z,42.10
2018-08-04T08:26:27.728Z,42.60
2018-08-04T08:28:55.788Z,42.80
2018-08-04T08:31:23.876Z,42.40
2018-08-04T08:33:51.984Z,42.10
2018-08-04T08:36:20.037Z,41.80
2018-08-04T08:38:48.101Z,41.70
2018-08-04T08:41:16.160Z,41.20
2018-08-04T08:43:44.224Z,41.50
2018-08-04T08:46:12.318Z,40.70
2018-08-04T08:48:40.596Z,41.70
2018-08-04T08:51:08.659Z,43.60
2018-08-04T08:53:36.842Z,43.40
2018-08-04T08:56:05.444Z,44.00
2018-08-04T08:58:33.508Z,44.10
2018-08-04T09:01:01.600Z,44.80
2018-08-04T09:03:29.677Z,45.30
2018-08-04T09:05:57.743Z,45.80
2018-08-04T09:08:25.812Z,47.10
2018-08-04T09:10:53.872Z,47.50
2018-08-04T09:13:21.964Z,47.50
2018-08-04T09:15:50.020Z,48.20
2018-08-04T09:18:18.118Z,48.10
2018-08-04T09:20:46.189Z,45.60
2018-08-04T09:23:14.249Z,48.90
2018-08-04T09:25:42.304Z,48.20
2018-08-04T09:28:10.832Z,49.20
2018-08-04T09:30:38.896Z,49.60
2018-08-04T09:33:06.989Z,48.30
2018-08-04T09:35:35.064Z,47.50
2018-08-04T09:38:03.128Z,48.70
2018-08-04T09:40:31.192Z,48.50
2018-08-04T09:42:59.306Z,46.40
2018-08-04T09:45:27.348Z,48.20
2018-08-04T09:47:55.432Z,48.90
2018-08-04T09:50:23.495Z,47.10
2018-08-04T09:52:51.556Z,47.20
2018-08-04T09:55:19.620Z,47.70
2018-08-04T09:57:47.683Z,46.10
2018-08-04T10:00:21.276Z,47.00
2018-08-04T10:02:49.342Z,46.00
2018-08-04T10:05:17.517Z,44.40
2018-08-04T10:07:45.432Z,46.30
2018-08-04T10:10:13.482Z,46.10
2018-08-04T10:12:41.524Z,46.00
2018-08-04T10:15:10.776Z,48.90
2018-08-04T10:17:39.056Z,48.50
2018-08-04T10:20:08.734Z,48.80
2018-08-04T10:22:36.796Z,47.40
2018-08-04T10:25:05.368Z,48.20
2018-08-04T10:27:33.548Z,48.30
2018-08-04T10:30:01.609Z,48.50
2018-08-04T10:32:30.042Z,50.30
2018-08-04T10:34:58.068Z,47.80
2018-08-04T10:37:26.112Z,47.40
2018-08-04T10:39:54.163Z,47.70
2018-08-04T10:42:22.210Z,49.10
2018-08-04T10:44:50.244Z,49.10
2018-08-04T10:47:18.284Z,49.40
2018-08-04T10:49:46.335Z,51.30
2018-08-04T10:52:14.387Z,46.90
2018-08-04T10:54:42.440Z,46.80
2018-08-04T10:57:10.484Z,48.70
2018-08-04T10:59:38.548Z,49.30
2018-08-04T11:02:07.597Z,46.60
2018-08-04T11:04:35.676Z,47.40
2018-08-04T11:07:03.736Z,48.30
2018-08-04T11:09:31.790Z,49.10
2018-08-04T11:11:59.877Z,49.30
2018-08-04T11:14:27.928Z,47.80
2018-08-04T11:16:56.000Z,48.30
2018-08-04T11:19:24.053Z,51.10
2018-08-04T11:21:52.103Z,47.80
2018-08-04T11:24:20.145Z,47.10
2018-08-04T11:26:48.217Z,48.80
2018-08-04T11:29:16.261Z,48.80
2018-08-04T11:31:44.296Z,49.80
2018-08-04T11:34:12.347Z,48.60
2018-08-04T11:36:40.400Z,48.30
2018-08-04T11:39:10.674Z,47.00
2018-08-04T11:41:38.719Z,47.20
2018-08-04T11:44:06.768Z,46.40
2018-08-04T11:46:34.813Z,46.90
2018-08-04T11:49:02.888Z,47.30
2018-08-04T11:51:30.937Z,47.10
2018-08-04T11:53:58.981Z,46.30
2018-08-04T11:56:27.020Z,44.90
2018-08-04T11:58:55.056Z,46.80
2018-08-04T12:01:23.105Z,46.20
2018-08-04T12:03:51.148Z,49.10
2018-08-04T12:08:47.104Z,49.00
2018-08-04T12:11:15.250Z,48.80
2018-08-04T12:13:43.249Z,49.20
2018-08-04T12:16:11.297Z,50.30
2018-08-04T12:18:39.381Z,50.20
2018-08-04T12:21:07.434Z,51.00
2018-08-04T12:23:35.485Z,54.00
2018-08-04T12:26:03.536Z,51.20
2018-08-04T12:28:31.575Z,52.50
2018-08-04T12:30:59.620Z,51.50
2018-08-04T12:33:27.680Z,51.90
2018-08-04T12:35:55.748Z,50.80
2018-08-04T12:38:23.797Z,51.00
2018-08-04T12:40:51.880Z,50.70
2018-08-04T12:43:19.916Z,50.30
2018-08-04T12:45:47.987Z,49.20
2018-08-04T12:48:16.033Z,49.80
2018-08-04T12:50:44.128Z,49.60
2018-08-04T12:53:12.170Z,48.70
2018-08-04T12:55:40.277Z,50.10
2018-08-04T12:58:08.296Z,48.90
2018-08-04T13:00:36.344Z,47.00
2018-08-04T13:03:04.380Z,47.80
2018-08-04T13:05:32.442Z,48.00
2018-08-04T13:08:00.484Z,47.30
2018-08-04T13:10:28.548Z,45.30
2018-08-04T13:12:56.589Z,44.50
2018-08-04T13:15:24.639Z,47.20
2018-08-04T13:17:52.764Z,49.20
2018-08-04T13:20:20.813Z,48.90
2018-08-04T13:22:48.848Z,46.70
2018-08-04T13:25:16.892Z,50.20
2018-08-04T13:27:44.936Z,50.50
2018-08-04T13:30:12.992Z,47.30
2018-08-04T13:32:41.025Z,47.60
2018-08-04T13:35:08.777Z,44.00
2018-08-04T13:37:36.816Z,42.40
2018-08-04T13:40:05.065Z,43.10
2018-08-04T13:42:33.104Z,41.60
2018-08-04T13:45:01.148Z,41.60
2018-08-04T13:47:29.180Z,43.70
2018-08-04T13:49:57.256Z,42.00
2018-08-04T13:52:25.277Z,41.20
2018-08-04T13:54:53.336Z,42.40
2018-08-04T13:57:21.468Z,41.50
2018-08-04T13:59:49.556Z,42.30
2018-08-04T14:02:17.620Z,45.90
2018-08-04T14:04:45.688Z,45.50
2018-08-04T14:07:13.752Z,44.10
2018-08-04T14:09:41.812Z,43.80
2018-08-04T14:12:09.910Z,46.30
2018-08-04T14:14:37.952Z,55.70
2018-08-04T14:17:06.032Z,55.10
2018-08-04T14:19:34.132Z,58.20
2018-08-04T14:22:02.224Z,58.40
2018-08-04T14:24:30.295Z,55.50
2018-08-04T14:26:58.400Z,67.20
2018-08-04T14:29:26.460Z,71.90
2018-08-04T14:31:54.579Z,76.30
2018-08-04T14:34:22.639Z,83.10
2018-08-04T14:36:50.724Z,92.40
2018-08-04T14:39:18.810Z,95.40
2018-08-04T14:41:46.913Z,94.90
2018-08-04T14:44:15.060Z,94.30
2018-08-04T14:46:43.120Z,97.10
2018-08-04T14:49:11.201Z,99.90
2018-08-04T14:51:39.267Z,99.90
2018-08-04T14:54:07.344Z,99.90
2018-08-04T14:56:35.424Z,99.90
2018-08-04T14:59:03.529Z,99.90
2018-08-04T15:01:31.612Z,99.90
2018-08-04T15:03:59.687Z,99.90
2018-08-04T15:06:27.771Z,99.90
2018-08-04T15:08:55.844Z,99.90
2018-08-04T15:11:23.923Z,99.90
2018-08-04T15:13:51.989Z,99.90
2018-08-04T15:16:20.069Z,95.00
2018-08-04T15:18:48.135Z,98.60
2018-08-04T15:21:16.236Z,99.90
2018-08-04T15:23:44.356Z,99.90
2018-08-04T15:26:12.497Z,99.90
2018-08-04T15:28:40.608Z,99.90
2018-08-04T15:31:08.693Z,99.90
2018-08-04T15:33:36.764Z,99.90
2018-08-04T15:36:05.021Z,99.90
2018-08-04T15:38:33.136Z,99.90
2018-08-04T15:41:01.188Z,99.90
2018-08-04T15:45:57.117Z,99.90
2018-08-04T15:48:25.204Z,99.90
2018-08-04T15:50:53.286Z,99.90
2018-08-04T15:53:21.424Z,99.90
2018-08-04T15:55:49.518Z,99.90
2018-08-04T15:58:17.579Z,99.90
2018-08-04T16:00:45.644Z,99.90
2018-08-04T16:03:13.723Z,99.90
2018-08-04T16:05:41.828Z,99.90
2018-08-04T16:08:09.855Z,99.90
2018-08-04T16:10:37.925Z,99.90
2018-08-04T16:13:05.984Z,99.90
2018-08-04T16:15:34.096Z,99.90
2018-08-04T16:18:02.153Z,99.90
2018-08-04T16:20:30.276Z,99.90
2018-08-04T16:22:58.336Z,99.90
2018-08-04T16:25:26.412Z,99.90
2018-08-04T16:30:22.308Z,99.90
2018-08-04T16:32:50.378Z,99.90
2018-08-04T16:35:18.476Z,99.90
2018-08-04T16:37:46.544Z,99.90
2018-08-04T16:40:14.604Z,99.90
2018-08-04T16:42:42.696Z,99.90
2018-08-04T16:45:10.756Z,99.90
2018-08-04T16:47:38.807Z,99.90
2018-08-04T16:50:06.856Z,99.90
2018-08-04T16:52:34.964Z,99.90
2018-08-04T16:55:03.023Z,99.90
2018-08-04T16:57:31.120Z,99.90
2018-08-04T16:59:59.181Z,99.90
2018-08-04T17:04:55.289Z,99.90
2018-08-04T17:07:23.364Z,99.90
2018-08-04T17:09:51.400Z,99.90
2018-08-04T17:12:19.507Z,99.90
2018-08-04T17:14:47.509Z,99.90
2018-08-04T17:17:15.559Z,99.90
2018-08-04T17:19:43.613Z,99.90
2018-08-04T17:22:11.694Z,99.90
2018-08-04T17:24:39.829Z,99.90
2018-08-04T17:27:07.892Z,99.90
2018-08-04T17:29:35.934Z,99.90
2018-08-04T17:32:03.989Z,99.90
2018-08-04T17:34:32.040Z,99.90
2018-08-04T17:37:00.085Z,96.20
2018-08-04T17:39:28.127Z,94.70
2018-08-04T17:41:56.204Z,93.20
2018-08-04T17:44:24.348Z,93.50
2018-08-04T17:46:52.372Z,90.90
2018-08-04T17:49:20.437Z,92.50
2018-08-04T17:51:48.491Z,90.50
2018-08-04T17:54:16.568Z,86.50
2018-08-04T17:56:45.698Z,84.40
2018-08-04T17:59:13.748Z,90.50
2018-08-04T18:01:41.813Z,85.50
2018-08-04T18:04:09.868Z,84.30
2018-08-04T18:06:37.921Z,81.70
2018-08-04T18:09:08.281Z,81.30
2018-08-04T18:11:36.652Z,80.90
2018-08-04T18:14:04.749Z,74.90
2018-08-04T18:16:32.793Z,75.90
2018-08-04T18:19:00.869Z,75.80
2018-08-04T18:21:28.920Z,72.90
2018-08-04T18:23:56.980Z,75.90
2018-08-04T18:26:25.296Z,74.00
2018-08-04T18:28:53.345Z,73.20
2018-08-04T18:31:21.388Z,75.00
2018-08-04T18:33:49.436Z,73.30
2018-08-04T18:36:18.017Z,74.70
2018-08-04T18:38:46.089Z,72.80
2018-08-04T18:41:14.135Z,74.40
2018-08-04T18:43:42.184Z,70.00
2018-08-04T18:46:10.236Z,71.00
2018-08-04T18:48:38.284Z,68.00
2018-08-04T18:51:06.460Z,71.00
2018-08-04T18:53:34.504Z,68.70
2018-08-04T18:56:02.745Z,68.90
2018-08-04T18:58:30.848Z,68.90
2018-08-04T19:00:58.884Z,69.20
2018-08-04T19:03:26.948Z,71.10
2018-08-04T19:05:55.268Z,71.10
2018-08-04T19:08:23.328Z,68.60
2018-08-04T19:10:51.551Z,68.60
2018-08-04T19:13:19.588Z,67.00
2018-08-04T19:15:49.135Z,66.10
2018-08-04T19:18:17.150Z,67.50
2018-08-04T19:20:45.216Z,65.50
2018-08-04T19:23:13.585Z,65.40
2018-08-04T19:25:41.635Z,65.50
2018-08-04T19:28:10.911Z,65.80
2018-08-04T19:30:38.948Z,66.30
2018-08-04T19:33:11.287Z,67.00
2018-08-04T19:35:39.336Z,65.70
2018-08-04T19:38:07.477Z,64.90
2018-08-04T19:40:35.525Z,65.20
2018-08-04T19:43:03.600Z,65.00
2018-08-04T19:45:31.762Z,65.00
2018-08-04T19:47:59.824Z,65.10
2018-08-04T19:50:27.860Z,65.20
2018-08-04T19:52:55.913Z,65.20
2018-08-04T19:55:24.036Z,66.50
2018-08-04T19:57:52.080Z,65.20
2018-08-04T20:00:20.116Z,65.90
2018-08-04T20:02:48.169Z,65.80
2018-08-04T20:05:16.244Z,66.10
2018-08-04T20:07:44.387Z,68.30
2018-08-04T20:10:12.452Z,67.10
2018-08-04T20:12:40.536Z,69.80
2018-08-04T20:15:08.609Z,67.90
2018-08-04T20:17:36.759Z,67.30
2018-08-04T20:20:05.017Z,65.80
2018-08-04T20:22:33.081Z,68.10
2018-08-04T20:25:01.144Z,66.00
2018-08-04T20:27:29.220Z,68.20
2018-08-04T20:29:57.392Z,68.30
2018-08-04T20:32:25.463Z,70.90
2018-08-04T20:34:53.587Z,68.30
2018-08-04T20:37:21.592Z,69.30
2018-08-04T20:39:49.655Z,70.00
2018-08-04T20:42:17.719Z,72.10
2018-08-04T20:44:45.868Z,72.40
2018-08-04T20:47:13.879Z,73.50
2018-08-04T20:49:41.950Z,72.10
2018-08-04T20:52:10.011Z,72.80
2018-08-04T20:54:38.093Z,72.00
2018-08-04T20:57:06.195Z,72.90
2018-08-04T20:59:34.261Z,72.80
2018-08-04T21:02:03.624Z,71.20
2018-08-04T21:04:32.937Z,68.90
2018-08-04T21:07:01.529Z,71.10
2018-08-04T21:09:29.608Z,70.80
2018-08-04T21:11:57.798Z,70.20
2018-08-04T21:14:26.816Z,71.50
2018-08-04T21:16:55.814Z,73.20
2018-08-04T21:19:24.269Z,74.00
2018-08-04T21:21:52.332Z,74.60
2018-08-04T21:24:21.716Z,76.40
2018-08-04T21:26:50.957Z,73.90
2018-08-04T21:29:19.032Z,75.20
2018-08-04T21:31:47.096Z,77.60
2018-08-04T21:34:15.160Z,77.90
2018-08-04T21:36:43.865Z,77.80
2018-08-04T21:39:13.396Z,78.10
2018-08-04T21:41:42.089Z,77.10
2018-08-04T21:44:10.206Z,77.60
2018-08-04T21:46:41.045Z,77.60
2018-08-04T21:49:09.131Z,78.90
2018-08-04T21:51:37.276Z,82.50
2018-08-04T21:54:05.340Z,81.80
2018-08-04T21:56:33.419Z,81.60
2018-08-04T21:59:01.493Z,80.40
2018-08-04T22:01:29.628Z,80.70
2018-08-04T22:03:57.621Z,81.50
2018-08-04T22:06:35.408Z,82.90
2018-08-04T22:09:15.013Z,82.00
2018-08-04T22:11:43.076Z,81.90
2018-08-04T22:14:11.127Z,84.30
2018-08-04T22:16:39.161Z,83.50
2018-08-04T22:19:07.252Z,84.30
2018-08-04T22:21:35.261Z,83.40
2018-08-04T22:24:03.316Z,82.20
2018-08-04T22:26:31.357Z,83.50
2018-08-04T22:28:59.564Z,85.20
2018-08-04T22:31:27.603Z,86.00
2018-08-04T22:33:55.656Z,87.20
2018-08-04T22:36:23.729Z,87.80
2018-08-04T22:38:51.762Z,90.50
2018-08-04T22:41:19.816Z,91.40
2018-08-04T22:43:47.860Z,90.00
2018-08-04T22:46:17.079Z,85.90
2018-08-04T22:48:46.388Z,84.20
2018-08-04T22:51:18.740Z,86.20
2018-08-04T22:53:46.904Z,89.90
2018-08-04T22:56:14.952Z,89.80
2018-08-04T22:58:43.031Z,90.00
2018-08-04T23:01:11.331Z,89.40
2018-08-04T23:03:39.376Z,87.20
2018-08-04T23:06:07.470Z,87.20
2018-08-04T23:08:35.528Z,84.00
2018-08-04T23:11:03.600Z,84.20
2018-08-04T23:13:31.667Z,83.20
2018-08-04T23:15:59.731Z,82.80
2018-08-04T23:18:27.843Z,82.00
2018-08-04T23:20:55.904Z,83.60
2018-08-04T23:23:23.970Z,87.30
2018-08-04T23:25:52.032Z,88.50
2018-08-04T23:28:20.100Z,89.50
2018-08-04T23:30:48.168Z,89.20
2018-08-04T23:33:16.223Z,90.70
2018-08-04T23:35:44.292Z,91.40
2018-08-04T23:38:12.352Z,92.30
2018-08-04T23:40:40.422Z,93.40
2018-08-04T23:43:08.480Z,94.30
2018-08-04T23:45:36.547Z,94.60
2018-08-04T23:48:04.612Z,94.90
2018-08-04T23:50:32.688Z,95.50
2018-08-04T23:53:00.740Z,95.70
2018-08-04T23:55:28.807Z,95.80
2018-08-04T23:57:56.875Z,96.50
